Airfield :







YOU CAN JOIN US ON...

 
LOGIN :

Register | Disclaimer

   EN    FR    IT 

 









Legend :    VFR   Marginal VFR   IFR   Intensive IFR   Very Intensive IFR
Visi :
Ceiling :
>= 8 km
>= 3000ft
5 to 8 km
1000 to 3000 ft
1500m to 5 km
500 to 1000 ft
800 to 1500m
200 to 500 ft
< 800m
< 200 ft
Symbols :   Thunderstorms  Fog  Heavy snow  Heavy precipitations  Wind > 20 kt






- Airport Elevation : 9 ft
- IATA code : SJU


TJSJ - Luis Munoz Marin Int.

CURRENT METAR :
  • 071556Z 07017G24KT 10SM SCT022 SCT029 BKN085 31/26 A3002 RMK AO2 SLP163 VCSH SE-SW W-NW T03060261

EXPIRED METARs :
  • 071456Z 07010KT 10SM SCT022 BKN033 BKN085 30/26 A3002 RMK AO2 RAE09 SLP164 SHRA DSNT NW P0000 60000 T03000261 50004
  • 071356Z 09014KT 10SM -RA SCT024 BKN033 BKN060 29/25 A3003 RMK AO2 RAB52 SLP168 P0000 T02890250

TAF TJSJ
Valid from the 07 at 16:00 until the 08 at 12:00 UTC


071616Z 0716/0812 08018G25KT P6SM VCTS SCT022 SCT030CB SCT080
FM072300 07015KT P6SM VCSH SCT035 SCT050
FM080300 08006KT P6SM SCT030 BKN050
TJZS FIR / North America



MET'MAP, your aeronautical weather chart ! - Copyright ORBIFLY December 2007 - Disclaimer

ORBIFLY MET'MAP TEAM :

Programming & Development : Alexandra Zaïnal
Original concept : Baudouin d'Aumeries
Technical & hardware support : Manuel Goepfert
Assistance : Marc-Olivier Méhu




SOURCES & CREDITS :

   NOAA